createdAt,value
2022-08-25T00:00:41.864Z,25.22
2022-08-25T00:05:47.910Z,24.74
2022-08-25T00:10:53.991Z,25.08
2022-08-25T00:16:06.484Z,25.05
2022-08-25T00:21:10.450Z,24.44
2022-08-25T00:26:14.325Z,25.00
2022-08-25T00:31:20.080Z,24.91
2022-08-25T00:36:24.215Z,24.87
2022-08-25T00:41:27.273Z,24.62
2022-08-25T00:46:32.587Z,24.98
2022-08-25T00:51:40.368Z,24.79
2022-08-25T00:56:44.229Z,24.84
2022-08-25T01:01:47.822Z,24.98
2022-08-25T01:06:52.287Z,24.79
2022-08-25T01:11:55.313Z,24.75
2022-08-25T01:16:59.234Z,24.45
2022-08-25T01:22:03.320Z,24.11
2022-08-25T01:27:07.019Z,23.89
2022-08-25T01:32:13.152Z,23.61
2022-08-25T01:37:19.067Z,24.36
2022-08-25T01:42:44.058Z,24.70
2022-08-25T01:47:46.801Z,24.73
2022-08-25T01:52:56.206Z,24.48
2022-08-25T01:57:59.875Z,23.75
2022-08-25T02:03:02.709Z,23.99
2022-08-25T02:08:09.807Z,24.49
2022-08-25T02:13:13.179Z,24.52
2022-08-25T02:18:17.872Z,24.39
2022-08-25T02:23:22.451Z,24.19
2022-08-25T02:28:26.347Z,24.37
2022-08-25T02:33:29.468Z,24.17
2022-08-25T02:38:33.593Z,23.76
2022-08-25T02:43:36.248Z,24.24
2022-08-25T02:48:40.384Z,24.24
2022-08-25T02:53:45.979Z,24.11
2022-08-25T02:58:51.482Z,23.76
2022-08-25T03:03:54.416Z,24.30
2022-08-25T03:08:59.703Z,24.12
2022-08-25T03:14:02.409Z,24.25
2022-08-25T03:19:05.762Z,23.70
2022-08-25T03:24:09.861Z,24.16
2022-08-25T03:29:13.758Z,24.06
2022-08-25T03:34:18.174Z,23.48
2022-08-25T03:39:25.045Z,23.99
2022-08-25T03:44:28.160Z,21.77
2022-08-25T03:49:31.428Z,23.68
2022-08-25T03:54:39.690Z,23.43
2022-08-25T03:59:42.551Z,23.90
2022-08-25T04:04:45.340Z,23.75
2022-08-25T04:09:49.908Z,24.01
2022-08-25T04:14:53.180Z,23.56
2022-08-25T04:19:55.947Z,23.80
2022-08-25T04:25:00.984Z,24.02
2022-08-25T04:30:08.091Z,24.03
2022-08-25T04:35:11.456Z,23.57
2022-08-25T04:40:15.546Z,24.05
2022-08-25T04:45:18.367Z,23.37
2022-08-25T04:50:21.095Z,24.04
2022-08-25T04:55:25.344Z,23.90
2022-08-25T05:00:28.053Z,23.65
2022-08-25T05:05:31.053Z,22.98
2022-08-25T05:10:40.581Z,23.61
2022-08-25T05:15:51.984Z,22.97
2022-08-25T05:20:55.985Z,23.24
2022-08-25T05:26:04.332Z,23.23
2022-08-25T05:31:08.665Z,22.88
2022-08-25T05:36:14.197Z,22.83
2022-08-25T05:41:19.888Z,22.61
2022-08-25T05:46:23.264Z,22.62
2022-08-25T05:51:26.270Z,23.72
2022-08-25T05:56:31.266Z,23.91
2022-08-25T06:01:51.742Z,23.18
2022-08-25T06:06:55.528Z,22.78
2022-08-25T06:12:00.577Z,22.91
2022-08-25T06:17:08.308Z,23.01
2022-08-25T06:22:11.107Z,23.45
2022-08-25T06:27:15.648Z,23.65
2022-08-25T06:32:18.922Z,23.73
2022-08-25T06:37:25.159Z,23.60
2022-08-25T06:42:29.839Z,24.01
2022-08-25T06:47:32.479Z,23.97
2022-08-25T06:52:36.981Z,23.88
2022-08-25T06:57:40.902Z,24.16
2022-08-25T07:02:43.829Z,24.18
2022-08-25T07:07:47.378Z,24.38
2022-08-25T07:12:51.744Z,24.48
2022-08-25T07:17:54.479Z,24.50
2022-08-25T07:22:57.177Z,24.73
2022-08-25T07:28:01.902Z,24.85
2022-08-25T07:33:06.868Z,24.95
2022-08-25T07:38:13.022Z,24.78
2022-08-25T07:43:20.015Z,25.09
2022-08-25T07:48:23.171Z,25.19
2022-08-25T07:53:25.915Z,25.35
2022-08-25T07:58:30.158Z,25.40
2022-08-25T08:03:50.524Z,25.21
2022-08-25T08:08:59.828Z,25.40
2022-08-25T08:14:04.877Z,25.71
2022-08-25T08:19:08.042Z,25.82
2022-08-25T08:24:31.073Z,25.95
2022-08-25T08:29:37.784Z,26.02
2022-08-25T08:34:41.892Z,26.01
2022-08-25T08:39:48.600Z,25.89
2022-08-25T08:45:09.648Z,26.17
2022-08-25T08:50:30.802Z,26.32
2022-08-25T08:55:40.181Z,26.20
2022-08-25T09:00:52.279Z,26.57
2022-08-25T09:06:00.028Z,26.56
2022-08-25T09:11:11.925Z,26.70
2022-08-25T09:16:48.403Z,26.59
2022-08-25T09:21:57.942Z,26.81
2022-08-25T09:27:11.624Z,26.84
2022-08-25T09:32:24.179Z,26.85
2022-08-25T09:37:34.456Z,26.96
2022-08-25T09:42:57.649Z,26.77
2022-08-25T09:48:02.885Z,27.03
2022-08-25T09:53:18.614Z,27.44
2022-08-25T09:58:25.444Z,27.35
2022-08-25T10:03:36.660Z,27.40
2022-08-25T10:08:41.736Z,27.29
2022-08-25T10:13:49.901Z,27.71
2022-08-25T10:19:05.748Z,27.73
2022-08-25T10:24:10.316Z,27.34
2022-08-25T10:29:32.655Z,28.09
2022-08-25T10:34:51.447Z,28.29
2022-08-25T10:40:04.920Z,28.05
2022-08-25T10:45:39.601Z,28.19
2022-08-25T10:50:49.202Z,28.53
2022-08-25T10:56:03.168Z,28.78
2022-08-25T11:01:16.233Z,28.83
2022-08-25T11:06:26.408Z,28.94
2022-08-25T11:11:35.096Z,29.04
2022-08-25T11:16:44.467Z,28.96
2022-08-25T11:21:57.043Z,29.41
2022-08-25T11:27:01.862Z,29.75
2022-08-25T11:32:05.993Z,30.09
2022-08-25T11:37:20.559Z,30.43
2022-08-25T11:42:38.111Z,30.64
2022-08-25T11:48:09.297Z,30.82
2022-08-25T11:53:28.289Z,30.99
2022-08-25T11:58:38.611Z,30.83
2022-08-25T12:04:14.869Z,31.05
2022-08-25T12:09:22.788Z,30.99
2022-08-25T12:14:46.370Z,31.51
2022-08-25T12:19:58.513Z,31.73
2022-08-25T12:25:09.783Z,31.40
2022-08-25T12:30:21.131Z,31.94
2022-08-25T12:35:30.129Z,32.21
2022-08-25T12:40:39.073Z,32.38
2022-08-25T12:45:45.664Z,32.29
2022-08-25T12:50:57.668Z,32.59
2022-08-25T12:56:06.364Z,32.83
2022-08-25T13:01:35.778Z,32.97
2022-08-25T13:06:59.815Z,33.22
2022-08-25T13:12:14.146Z,33.22
2022-08-25T13:17:26.672Z,33.21
2022-08-25T13:22:29.373Z,33.04
2022-08-25T13:27:36.700Z,33.21
2022-08-25T13:32:39.851Z,33.33
2022-08-25T13:37:43.728Z,33.58
2022-08-25T13:42:55.556Z,33.43
2022-08-25T13:47:59.375Z,33.89
2022-08-25T13:53:06.057Z,34.01
2022-08-25T13:58:17.552Z,33.84
2022-08-25T14:03:33.622Z,33.75
2022-08-25T14:08:39.975Z,33.43
2022-08-25T14:13:46.395Z,33.76
2022-08-25T14:18:52.567Z,33.82
2022-08-25T14:23:56.980Z,33.56
2022-08-25T14:29:01.424Z,32.37
2022-08-25T14:34:07.011Z,33.21
2022-08-25T14:39:10.385Z,32.89
2022-08-25T14:44:15.116Z,32.77
2022-08-25T14:49:24.631Z,32.79
2022-08-25T14:54:28.594Z,32.51
2022-08-25T14:59:33.462Z,32.27
2022-08-25T15:04:37.985Z,31.95
2022-08-25T15:09:41.494Z,31.82
2022-08-25T15:14:46.585Z,31.66
2022-08-25T15:25:08.803Z,31.46
2022-08-25T15:30:17.139Z,31.21
2022-08-25T15:35:27.628Z,31.03
2022-08-25T15:40:31.918Z,31.12
2022-08-25T15:45:40.473Z,30.64
2022-08-25T15:50:43.695Z,30.59
2022-08-25T15:55:47.020Z,29.74
2022-08-25T16:00:56.152Z,30.06
2022-08-25T16:05:59.752Z,29.82
2022-08-25T16:11:02.589Z,29.69
2022-08-25T16:16:07.342Z,29.53
2022-08-25T16:21:15.624Z,29.50
2022-08-25T16:26:18.632Z,29.48
2022-08-25T16:31:23.533Z,29.42
2022-08-25T16:36:28.005Z,29.27
2022-08-25T16:41:35.708Z,28.95
2022-08-25T16:46:41.772Z,29.23
2022-08-25T16:51:48.225Z,29.18
2022-08-25T16:57:09.602Z,29.47
2022-08-25T17:02:13.754Z,29.40
2022-08-25T17:07:19.526Z,29.42
2022-08-25T17:12:27.362Z,29.47
2022-08-25T17:17:37.949Z,28.94
2022-08-25T17:22:40.627Z,29.41
2022-08-25T17:27:44.272Z,29.71
2022-08-25T17:32:50.996Z,29.69
2022-08-25T17:37:54.301Z,29.68
2022-08-25T17:42:57.578Z,29.28
2022-08-25T17:48:01.620Z,29.11
2022-08-25T17:53:09.576Z,29.34
2022-08-25T17:58:16.069Z,29.13
2022-08-25T18:03:21.971Z,29.02
2022-08-25T18:08:29.237Z,29.02
2022-08-25T18:13:35.831Z,28.74
2022-08-25T18:18:42.082Z,28.90
2022-08-25T18:23:46.649Z,28.73
2022-08-25T18:28:49.909Z,28.84
2022-08-25T18:33:54.281Z,28.81
2022-08-25T18:39:15.278Z,28.23
2022-08-25T18:44:20.276Z,27.69
2022-08-25T18:49:26.687Z,28.60
2022-08-25T18:54:31.410Z,28.21
2022-08-25T18:59:34.415Z,28.20
2022-08-25T19:04:39.594Z,28.34
2022-08-25T19:09:44.856Z,28.29
2022-08-25T19:14:47.904Z,28.25
2022-08-25T19:19:52.353Z,28.21
2022-08-25T19:24:55.680Z,27.94
2022-08-25T19:29:58.999Z,28.12
2022-08-25T19:35:03.462Z,28.03
2022-08-25T19:40:08.771Z,27.75
2022-08-25T19:45:14.541Z,27.75
2022-08-25T19:50:19.613Z,27.32
2022-08-25T19:55:24.663Z,27.59
2022-08-25T20:00:30.461Z,27.62
2022-08-25T20:05:36.068Z,27.55
2022-08-25T20:10:42.212Z,27.56
2022-08-25T20:15:44.937Z,27.33
2022-08-25T20:20:49.189Z,27.04
2022-08-25T20:25:52.961Z,26.48
2022-08-25T20:30:56.165Z,27.14
2022-08-25T20:36:02.112Z,27.04
2022-08-25T20:41:13.449Z,27.21
2022-08-25T20:46:17.992Z,26.92
2022-08-25T20:51:25.046Z,27.02
2022-08-25T20:56:29.842Z,27.12
2022-08-25T21:01:42.203Z,26.82
2022-08-25T21:06:47.244Z,26.99
2022-08-25T21:11:53.125Z,26.91
2022-08-25T21:16:56.507Z,26.67
2022-08-25T21:22:01.368Z,26.81
2022-08-25T21:27:04.971Z,26.92
2022-08-25T21:32:08.973Z,26.71
2022-08-25T21:37:13.699Z,26.58
2022-08-25T21:42:16.423Z,26.39
2022-08-25T21:47:20.845Z,26.63
2022-08-25T21:52:25.671Z,26.43
2022-08-25T21:57:29.536Z,26.63
2022-08-25T22:02:32.181Z,26.43
2022-08-25T22:07:40.399Z,26.37
2022-08-25T22:12:45.479Z,26.33
2022-08-25T22:17:49.180Z,26.30
2022-08-25T22:22:53.921Z,26.16
2022-08-25T22:27:57.273Z,25.79
2022-08-25T22:33:00.228Z,26.00
2022-08-25T22:38:06.139Z,25.93
2022-08-25T22:43:10.937Z,25.55
2022-08-25T22:48:13.755Z,25.94
2022-08-25T22:53:18.376Z,25.86
2022-08-25T22:58:21.513Z,26.05
2022-08-25T23:03:24.437Z,25.58
2022-08-25T23:08:39.383Z,25.06
2022-08-25T23:13:43.915Z,24.98
2022-08-25T23:18:46.991Z,25.23
2022-08-25T23:23:51.221Z,25.35
2022-08-25T23:28:54.550Z,25.63
2022-08-25T23:33:58.209Z,25.26
2022-08-25T23:39:02.970Z,25.04
2022-08-25T23:44:07.347Z,24.70
2022-08-25T23:49:13.626Z,25.04
2022-08-25T23:54:31.310Z,24.14
2022-08-25T23:59:34.415Z,24.51
